Time,TemperatureF,DewpointF,PressureIn,WindDirection,WindDirectionDegrees,WindSpeedMPH,WindSpeedGustMPH,Humidity,HourlyPrecipIn,Conditions,Clouds,dailyrainin,SoftwareType,DateUTC
2013-03-08 00:00:00,34.4,25.6,29.88,WNW,290,7.0,32.0,70,0.07,,---,1.72,VWS V14.01,2013-03-08 05:00:00,
2013-03-08 00:01:00,34.4,25.6,29.88,NW,319,11.0,11.0,70,0.05,,---,0.00,VWS V14.01,2013-03-08 05:01:00,
2013-03-08 00:06:00,34.4,25.3,29.88,North,355,17.0,30.0,69,0.06,,---,0.01,VWS V14.01,2013-03-08 05:06:00,
2013-03-08 00:11:00,34.4,25.3,29.88,NE,40,10.0,30.0,69,0.07,,---,0.02,VWS V14.01,2013-03-08 05:11:00,
2013-03-08 00:16:00,34.4,25.3,29.87,North,7,16.0,30.0,69,0.07,,---,0.02,VWS V14.01,2013-03-08 05:16:00,
2013-03-08 00:21:00,34.4,25.3,29.87,NNE,16,15.0,32.0,69,0.08,,---,0.03,VWS V14.01,2013-03-08 05:21:00,
2013-03-08 00:26:00,34.4,25.3,29.87,NNW,347,16.0,32.0,69,0.08,,---,0.03,VWS V14.01,2013-03-08 05:26:00,
2013-03-08 00:31:00,34.4,25.3,29.87,NW,321,19.0,30.0,69,0.07,,---,0.04,VWS V14.01,2013-03-08 05:31:00,
2013-03-08 00:36:00,34.4,25.3,29.87,North,354,17.0,30.0,69,0.07,,---,0.04,VWS V14.01,2013-03-08 05:36:00,
2013-03-08 00:41:00,34.4,25.3,29.88,North,354,9.0,30.0,69,0.07,,---,0.04,VWS V14.01,2013-03-08 05:41:00,
2013-03-08 00:46:00,34.4,25.3,29.87,NNE,12,10.0,30.0,69,0.07,,---,0.04,VWS V14.01,2013-03-08 05:46:00,
2013-03-08 00:51:00,34.4,25.3,29.87,North,355,10.0,32.0,69,0.08,,---,0.05,VWS V14.01,2013-03-08 05:51:00,
2013-03-08 00:56:00,34.4,25.3,29.87,NNW,341,14.0,32.0,69,0.08,,---,0.05,VWS V14.01,2013-03-08 05:56:00,
2013-03-08 01:01:00,34.4,25.3,29.87,NNW,338,7.0,23.0,69,0.05,,---,0.05,VWS V14.01,2013-03-08 06:01:00,
2013-03-08 01:06:00,34.4,25.3,29.87,North,355,22.0,29.0,69,0.06,,---,0.06,VWS V14.01,2013-03-08 06:06:00,
2013-03-08 01:11:00,34.4,25.3,29.86,NW,311,7.0,29.0,69,0.06,,---,0.06,VWS V14.01,2013-03-08 06:11:00,
2013-03-08 01:16:00,34.4,25.3,29.86,North,359,14.0,31.0,69,0.06,,---,0.06,VWS V14.01,2013-03-08 06:16:00,
2013-03-08 01:21:00,34.4,25.3,29.86,NNW,348,15.0,31.0,69,0.07,,---,0.07,VWS V14.01,2013-03-08 06:21:00,
2013-03-08 01:26:00,34.4,25.3,29.86,North,5,17.0,31.0,69,0.07,,---,0.07,VWS V14.01,2013-03-08 06:26:00,
2013-03-08 01:31:00,34.4,25.3,29.87,North,359,15.0,15.0,69,0.05,,---,0.08,VWS V14.01,2013-03-08 06:31:00,
2013-03-08 01:36:00,34.4,25.3,29.87,NNE,32,9.0,20.0,69,0.05,,---,0.08,VWS V14.01,2013-03-08 06:36:00,
2013-03-08 01:41:00,34.4,25.3,29.87,NE,54,8.0,23.0,69,0.05,,---,0.08,VWS V14.01,2013-03-08 06:41:00,
2013-03-08 01:46:00,34.4,25.3,29.88,NE,44,15.0,23.0,69,0.05,,---,0.08,VWS V14.01,2013-03-08 06:46:00,
2013-03-08 01:51:00,34.4,25.3,29.87,North,360,13.0,28.0,69,0.06,,---,0.09,VWS V14.01,2013-03-08 06:51:00,
2013-03-08 01:56:00,34.4,25.3,29.87,North,5,8.0,28.0,69,0.06,,---,0.09,VWS V14.01,2013-03-08 06:56:00,
2013-03-08 02:01:00,34.4,25.3,29.87,North,3,14.0,17.0,69,0.04,,---,0.09,VWS V14.01,2013-03-08 07:01:00,
2013-03-08 02:06:00,34.3,25.2,29.87,NNW,345,7.0,22.0,69,0.05,,---,0.10,VWS V14.01,2013-03-08 07:06:00,
2013-03-08 02:11:00,34.2,25.1,29.87,ENE,72,15.0,30.0,69,0.05,,---,0.10,VWS V14.01,2013-03-08 07:11:00,
2013-03-08 02:16:00,34.2,24.8,29.87,NNE,18,17.0,30.0,68,0.05,,---,0.10,VWS V14.01,2013-03-08 07:16:00,
2013-03-08 02:21:00,34.2,24.8,29.87,North,1,9.0,30.0,68,0.05,,---,0.10,VWS V14.01,2013-03-08 07:21:00,
2013-03-08 02:26:00,34.1,24.7,29.87,North,3,26.0,30.0,68,0.06,,---,0.11,VWS V14.01,2013-03-08 07:26:00,
2013-03-08 02:31:00,34.1,24.7,29.87,North,355,7.0,20.0,68,0.04,,---,0.11,VWS V14.01,2013-03-08 07:31:00,
2013-03-08 02:36:00,34.1,24.7,29.86,NNW,336,23.0,30.0,68,0.04,,---,0.11,VWS V14.01,2013-03-08 07:36:00,
2013-03-08 02:41:00,34.0,24.6,29.86,NNW,333,10.0,30.0,68,0.05,,---,0.12,VWS V14.01,2013-03-08 07:41:00,
2013-03-08 02:46:00,34.1,24.7,29.86,NNE,26,9.0,30.0,68,0.05,,---,0.12,VWS V14.01,2013-03-08 07:46:00,
2013-03-08 02:51:00,34.1,24.7,29.86,NNW,339,14.0,30.0,68,0.05,,---,0.12,VWS V14.01,2013-03-08 07:51:00,
2013-03-08 02:56:00,34.1,24.7,29.86,NNE,26,11.0,30.0,68,0.06,,---,0.13,VWS V14.01,2013-03-08 07:56:00,
2013-03-08 03:01:00,34.1,24.7,29.86,North,10,12.0,12.0,68,0.04,,---,0.13,VWS V14.01,2013-03-08 08:01:00,
2013-03-08 03:06:00,34.2,24.4,29.86,NNW,343,6.0,23.0,67,0.05,,---,0.14,VWS V14.01,2013-03-08 08:06:00,
2013-03-08 03:11:00,34.1,24.3,29.85,North,7,12.0,25.0,67,0.05,,---,0.14,VWS V14.01,2013-03-08 08:11:00,
2013-03-08 03:16:00,34.2,24.4,29.85,North,7,8.0,25.0,67,0.05,,---,0.14,VWS V14.01,2013-03-08 08:16:00,
2013-03-08 03:21:00,34.2,24.4,29.86,NW,317,8.0,25.0,67,0.06,,---,0.15,VWS V14.01,2013-03-08 08:21:00,
2013-03-08 03:26:00,34.1,24.3,29.86,NNW,330,4.0,25.0,67,0.06,,---,0.15,VWS V14.01,2013-03-08 08:26:00,
2013-03-08 03:31:00,34.1,24.3,29.86,NE,45,9.0,13.0,67,0.05,,---,0.16,VWS V14.01,2013-03-08 08:31:00,
2013-03-08 03:36:00,34.1,24.3,29.86,North,355,11.0,18.0,67,0.05,,---,0.16,VWS V14.01,2013-03-08 08:36:00,
2013-03-08 03:41:00,34.1,24.3,29.86,NNE,20,17.0,19.0,67,0.05,,---,0.16,VWS V14.01,2013-03-08 08:41:00,
2013-03-08 03:46:00,34.1,24.3,29.86,North,354,5.0,19.0,67,0.06,,---,0.17,VWS V14.01,2013-03-08 08:46:00,
2013-03-08 03:51:00,34.1,24.3,29.86,North,353,3.0,20.0,67,0.06,,---,0.17,VWS V14.01,2013-03-08 08:51:00,
2013-03-08 03:56:00,34.1,24.3,29.86,NNW,330,15.0,20.0,67,0.06,,---,0.17,VWS V14.01,2013-03-08 08:56:00,
2013-03-08 04:01:00,34.1,24.0,29.86,NNE,17,10.0,10.0,66,0.05,,---,0.18,VWS V14.01,2013-03-08 09:01:00,
2013-03-08 04:06:00,34.1,24.0,29.86,NE,34,8.0,19.0,66,0.05,,---,0.18,VWS V14.01,2013-03-08 09:06:00,
2013-03-08 04:11:00,34.1,24.0,29.87,NW,317,12.0,19.0,66,0.05,,---,0.18,VWS V14.01,2013-03-08 09:11:00,
2013-03-08 04:16:00,34.1,24.0,29.86,North,1,8.0,19.0,66,0.06,,---,0.19,VWS V14.01,2013-03-08 09:16:00,
2013-03-08 04:21:00,34.1,24.0,29.87,North,355,11.0,19.0,66,0.06,,---,0.19,VWS V14.01,2013-03-08 09:21:00,
2013-03-08 04:26:00,34.1,24.0,29.86,North,360,9.0,26.0,66,0.06,,---,0.19,VWS V14.01,2013-03-08 09:26:00,
2013-03-08 04:31:00,34.1,24.0,29.86,North,3,7.0,8.0,66,0.03,,---,0.19,VWS V14.01,2013-03-08 09:31:00,
2013-03-08 04:36:00,34.1,24.0,29.86,North,355,16.0,16.0,66,0.03,,---,0.19,VWS V14.01,2013-03-08 09:36:00,
2013-03-08 04:41:00,34.2,24.0,29.87,NNE,17,8.0,25.0,66,0.04,,---,0.20,VWS V14.01,2013-03-08 09:41:00,
2013-03-08 04:46:00,34.2,24.0,29.86,NNE,15,5.0,25.0,66,0.04,,---,0.20,VWS V14.01,2013-03-08 09:46:00,
2013-03-08 04:51:00,34.2,24.0,29.87,North,1,11.0,25.0,66,0.04,,---,0.20,VWS V14.01,2013-03-08 09:51:00,
2013-03-08 04:56:00,34.1,24.0,29.86,North,351,15.0,25.0,66,0.04,,---,0.20,VWS V14.01,2013-03-08 09:56:00,
2013-03-08 05:01:00,34.1,24.0,29.87,NE,47,12.0,12.0,66,0.03,,---,0.21,VWS V14.01,2013-03-08 10:01:00,
2013-03-08 05:06:00,34.1,24.0,29.86,North,354,10.0,16.0,66,0.03,,---,0.21,VWS V14.01,2013-03-08 10:06:00,
2013-03-08 05:11:00,34.1,23.6,29.86,NNE,17,10.0,25.0,65,0.03,,---,0.21,VWS V14.01,2013-03-08 10:11:00,
2013-03-08 05:16:00,34.1,23.6,29.86,North,353,11.0,25.0,65,0.03,,---,0.21,VWS V14.01,2013-03-08 10:16:00,
2013-03-08 05:21:00,34.1,23.6,29.86,North,356,15.0,25.0,65,0.03,,---,0.21,VWS V14.01,2013-03-08 10:21:00,
2013-03-08 05:26:00,34.1,23.6,29.86,NNE,32,8.0,25.0,65,0.04,,---,0.22,VWS V14.01,2013-03-08 10:26:00,
2013-03-08 05:31:00,34.1,23.6,29.86,NW,326,7.0,7.0,65,0.03,,---,0.22,VWS V14.01,2013-03-08 10:31:00,
2013-03-08 05:36:00,34.2,23.7,29.86,North,5,14.0,22.0,65,0.03,,---,0.22,VWS V14.01,2013-03-08 10:36:00,
2013-03-08 05:41:00,34.1,23.6,29.86,North,355,7.0,22.0,65,0.03,,---,0.22,VWS V14.01,2013-03-08 10:41:00,
2013-03-08 05:46:00,34.1,23.6,29.86,NW,305,14.0,22.0,65,0.03,,---,0.22,VWS V14.01,2013-03-08 10:46:00,
2013-03-08 05:51:00,34.1,23.6,29.86,NNW,338,11.0,22.0,65,0.04,,---,0.23,VWS V14.01,2013-03-08 10:51:00,
2013-03-08 05:56:00,34.1,23.6,29.86,NNE,15,11.0,22.0,65,0.04,,---,0.23,VWS V14.01,2013-03-08 10:56:00,
2013-03-08 06:01:00,34.1,23.6,29.85,NNE,30,14.0,22.0,65,0.04,,---,0.23,VWS V14.01,2013-03-08 11:01:00,
2013-03-08 06:05:00,34.2,23.7,29.85,North,9,14.0,22.0,65,0.02,,---,0.23,VWS V14.01,2013-03-08 11:05:00,
2013-03-08 06:10:00,34.2,23.7,29.86,NNE,13,11.0,22.0,65,0.03,,---,0.24,VWS V14.01,2013-03-08 11:10:00,
2013-03-08 06:15:00,34.2,23.7,29.86,NNE,22,9.0,22.0,65,0.03,,---,0.24,VWS V14.01,2013-03-08 11:15:00,
2013-03-08 06:20:00,34.2,23.7,29.86,North,355,8.0,23.0,65,0.03,,---,0.24,VWS V14.01,2013-03-08 11:20:00,
2013-03-08 06:25:00,34.3,23.4,29.86,NNW,344,9.0,23.0,64,0.03,,---,0.24,VWS V14.01,2013-03-08 11:25:00,
2013-03-08 06:30:00,34.3,23.4,29.86,North,358,7.0,9.0,64,0.03,,---,0.25,VWS V14.01,2013-03-08 11:30:00,
2013-03-08 06:35:00,34.3,23.4,29.86,North,1,18.0,21.0,64,0.04,,---,0.26,VWS V14.01,2013-03-08 11:35:00,
2013-03-08 06:40:00,34.4,23.9,29.86,North,8,10.0,22.0,65,0.04,,---,0.26,VWS V14.01,2013-03-08 11:40:00,
2013-03-08 06:45:00,34.4,23.5,29.86,North,351,14.0,24.0,64,0.05,,---,0.27,VWS V14.01,2013-03-08 11:45:00,
2013-03-08 06:50:00,34.4,23.9,29.86,NNE,15,23.0,24.0,65,0.05,,---,0.27,VWS V14.01,2013-03-08 11:50:00,
2013-03-08 06:55:00,34.4,23.5,29.86,North,354,11.0,26.0,64,0.06,,---,0.28,VWS V14.01,2013-03-08 11:55:00,
2013-03-08 07:00:00,34.4,23.5,29.86,North,359,15.0,26.0,64,0.06,,---,0.28,VWS V14.01,2013-03-08 12:00:00,
2013-03-08 07:05:00,34.4,23.5,29.86,NE,34,6.0,26.0,64,0.05,,---,0.28,VWS V14.01,2013-03-08 12:05:00,
2013-03-08 07:10:00,34.4,23.5,29.86,NNW,344,7.0,26.0,64,0.06,,---,0.29,VWS V14.01,2013-03-08 12:10:00,
2013-03-08 07:15:00,34.4,23.5,29.86,NNE,33,13.0,26.0,64,0.06,,---,0.29,VWS V14.01,2013-03-08 12:15:00,
2013-03-08 07:20:00,34.4,23.5,29.87,NNW,344,25.0,26.0,64,0.07,,---,0.30,VWS V14.01,2013-03-08 12:20:00,
2013-03-08 07:25:00,34.4,23.5,29.86,North,1,13.0,26.0,64,0.07,,---,0.30,VWS V14.01,2013-03-08 12:25:00,
2013-03-08 07:30:00,34.4,23.5,29.87,North,349,15.0,27.0,64,0.08,,---,0.31,VWS V14.01,2013-03-08 12:30:00,
2013-03-08 07:35:00,34.4,23.5,29.87,NNE,24,15.0,23.0,64,0.07,,---,0.32,VWS V14.01,2013-03-08 12:35:00,
2013-03-08 07:40:00,34.4,23.5,29.86,North,358,16.0,23.0,64,0.07,,---,0.32,VWS V14.01,2013-03-08 12:40:00,
2013-03-08 07:45:00,34.4,23.5,29.86,NE,53,16.0,26.0,64,0.07,,---,0.32,VWS V14.01,2013-03-08 12:45:00,
2013-03-08 07:50:00,34.4,23.5,29.87,North,1,12.0,26.0,64,0.08,,---,0.33,VWS V14.01,2013-03-08 12:50:00,
2013-03-08 07:55:00,34.4,23.5,29.87,NNE,25,10.0,26.0,64,0.09,,---,0.34,VWS V14.01,2013-03-08 12:55:00,
2013-03-08 08:00:00,34.4,23.5,29.87,NNE,15,5.0,32.0,64,0.10,,---,0.35,VWS V14.01,2013-03-08 13:00:00,
2013-03-08 08:05:00,34.4,23.5,29.87,NNW,336,15.0,30.0,64,0.08,,---,0.36,VWS V14.01,2013-03-08 13:05:00,
2013-03-08 08:10:00,34.4,23.5,29.87,NNE,13,8.0,30.0,64,0.09,,---,0.37,VWS V14.01,2013-03-08 13:10:00,
2013-03-08 08:15:00,34.4,23.5,29.87,North,6,13.0,30.0,64,0.10,,---,0.38,VWS V14.01,2013-03-08 13:15:00,
2013-03-08 08:20:00,34.4,23.5,29.87,North,2,17.0,30.0,64,0.12,,---,0.40,VWS V14.01,2013-03-08 13:20:00,
2013-03-08 08:25:00,34.4,23.5,29.87,NNW,333,6.0,30.0,64,0.13,,---,0.41,VWS V14.01,2013-03-08 13:25:00,
2013-03-08 08:30:00,34.4,23.5,29.87,North,11,12.0,30.0,64,0.14,,---,0.42,VWS V14.01,2013-03-08 13:30:00,
2013-03-08 08:35:00,34.4,23.5,29.87,NNE,13,11.0,29.0,64,0.12,,---,0.43,VWS V14.01,2013-03-08 13:35:00,
2013-03-08 08:40:00,34.4,23.5,29.87,NW,319,2.0,29.0,64,0.13,,---,0.44,VWS V14.01,2013-03-08 13:40:00,
2013-03-08 08:45:00,34.4,23.5,29.87,North,353,25.0,29.0,64,0.15,,---,0.46,VWS V14.01,2013-03-08 13:45:00,
2013-03-08 08:50:00,34.4,23.5,29.87,North,5,6.0,29.0,64,0.16,,---,0.47,VWS V14.01,2013-03-08 13:50:00,
2013-03-08 08:55:00,34.5,23.6,29.88,NNW,334,8.0,29.0,64,0.17,,---,0.48,VWS V14.01,2013-03-08 13:55:00,
2013-03-08 09:00:00,34.4,23.5,29.87,NNE,24,8.0,29.0,64,0.17,,---,0.48,VWS V14.01,2013-03-08 14:00:00,
2013-03-08 09:05:00,34.4,23.5,29.88,North,352,22.0,29.0,64,0.14,,---,0.49,VWS V14.01,2013-03-08 14:05:00,
2013-03-08 09:10:00,34.4,23.5,29.89,North,355,6.0,29.0,64,0.15,,---,0.50,VWS V14.01,2013-03-08 14:10:00,
2013-03-08 09:15:00,34.4,23.5,29.88,NE,48,12.0,29.0,64,0.16,,---,0.51,VWS V14.01,2013-03-08 14:15:00,
2013-03-08 09:20:00,34.4,23.5,29.88,NNE,22,8.0,29.0,64,0.17,,---,0.52,VWS V14.01,2013-03-08 14:20:00,
2013-03-08 09:25:00,34.4,23.5,29.88,North,10,17.0,29.0,64,0.17,,---,0.52,VWS V14.01,2013-03-08 14:25:00,
2013-03-08 09:30:00,34.4,23.5,29.88,NNE,24,8.0,29.0,64,0.18,,---,0.53,VWS V14.01,2013-03-08 14:30:00,
2013-03-08 09:35:00,34.4,23.5,29.89,North,11,7.0,27.0,64,0.12,,---,0.54,VWS V14.01,2013-03-08 14:35:00,
2013-03-08 09:40:00,34.6,23.7,29.88,North,359,13.0,29.0,64,0.13,,---,0.55,VWS V14.01,2013-03-08 14:40:00,
2013-03-08 09:45:00,34.5,23.6,29.88,NNE,13,25.0,30.0,64,0.14,,---,0.56,VWS V14.01,2013-03-08 14:45:00,
2013-03-08 09:50:00,34.4,23.5,29.88,North,4,10.0,30.0,64,0.15,,---,0.57,VWS V14.01,2013-03-08 14:50:00,
2013-03-08 09:55:00,34.4,23.5,29.89,North,349,20.0,30.0,64,0.16,,---,0.58,VWS V14.01,2013-03-08 14:55:00,
2013-03-08 10:00:00,34.4,23.5,29.89,North,7,14.0,30.0,64,0.16,,---,0.58,VWS V14.01,2013-03-08 15:00:00,
2013-03-08 10:05:00,34.4,23.5,29.89,NNW,346,7.0,16.0,64,0.11,,---,0.59,VWS V14.01,2013-03-08 15:05:00,
2013-03-08 10:10:00,34.4,23.5,29.89,NNW,342,16.0,21.0,64,0.12,,---,0.60,VWS V14.01,2013-03-08 15:10:00,
2013-03-08 10:15:00,34.4,23.5,29.89,NW,325,15.0,21.0,64,0.13,,---,0.61,VWS V14.01,2013-03-08 15:15:00,
2013-03-08 10:20:00,34.4,23.9,29.89,NNW,345,17.0,21.0,65,0.14,,---,0.62,VWS V14.01,2013-03-08 15:20:00,
2013-03-08 10:25:00,34.4,23.9,29.89,NW,323,6.0,22.0,65,0.14,,---,0.62,VWS V14.01,2013-03-08 15:25:00,
2013-03-08 10:30:00,34.4,23.9,29.90,NNW,342,13.0,22.0,65,0.15,,---,0.63,VWS V14.01,2013-03-08 15:30:00,
2013-03-08 10:35:00,34.4,23.9,29.90,North,8,27.0,27.0,65,0.11,,---,0.64,VWS V14.01,2013-03-08 15:35:00,
2013-03-08 10:40:00,34.4,23.9,29.90,NNE,26,13.0,27.0,65,0.12,,---,0.65,VWS V14.01,2013-03-08 15:40:00,
2013-03-08 10:45:00,34.4,23.5,29.89,NW,319,16.0,27.0,64,0.13,,---,0.66,VWS V14.01,2013-03-08 15:45:00,
2013-03-08 10:50:00,34.4,23.5,29.90,WNW,294,13.0,27.0,64,0.13,,---,0.66,VWS V14.01,2013-03-08 15:50:00,
2013-03-08 10:55:00,34.4,23.5,29.90,North,9,11.0,27.0,64,0.14,,---,0.67,VWS V14.01,2013-03-08 15:55:00,
2013-03-08 11:00:00,34.4,23.5,29.90,NW,322,12.0,29.0,64,0.15,,---,0.68,VWS V14.01,2013-03-08 16:00:00,
2013-03-08 11:05:00,34.4,23.5,29.90,North,4,7.0,26.0,64,0.11,,---,0.69,VWS V14.01,2013-03-08 16:05:00,
2013-03-08 11:10:00,34.4,23.5,29.90,NNE,30,12.0,26.0,64,0.12,,---,0.70,VWS V14.01,2013-03-08 16:10:00,
2013-03-08 11:15:00,34.4,23.5,29.90,WNW,294,10.0,27.0,64,0.12,,---,0.70,VWS V14.01,2013-03-08 16:15:00,
2013-03-08 11:20:00,34.4,23.5,29.90,NNW,344,29.0,29.0,64,0.13,,---,0.71,VWS V14.01,2013-03-08 16:20:00,
2013-03-08 11:25:00,34.4,23.5,29.90,NNW,342,18.0,29.0,64,0.14,,---,0.72,VWS V14.01,2013-03-08 16:25:00,
2013-03-08 11:30:00,34.4,23.5,29.90,North,7,23.0,29.0,64,0.15,,---,0.73,VWS V14.01,2013-03-08 16:30:00,
2013-03-08 11:35:00,34.4,23.5,29.90,North,351,11.0,22.0,64,0.11,,---,0.74,VWS V14.01,2013-03-08 16:35:00,
2013-03-08 11:40:00,34.6,23.7,29.91,NNW,338,10.0,22.0,64,0.11,,---,0.74,VWS V14.01,2013-03-08 16:40:00,
2013-03-08 11:45:00,34.6,23.7,29.90,NNE,33,15.0,28.0,64,0.12,,---,0.75,VWS V14.01,2013-03-08 16:45:00,
2013-03-08 11:50:00,34.8,23.9,29.90,NNW,348,6.0,31.0,64,0.12,,---,0.75,VWS V14.01,2013-03-08 16:50:00,
2013-03-08 11:55:00,34.9,24.0,29.90,North,1,23.0,31.0,64,0.13,,---,0.76,VWS V14.01,2013-03-08 16:55:00,
2013-03-08 12:00:00,34.8,23.9,29.90,NNW,328,10.0,33.0,64,0.13,,---,0.76,VWS V14.01,2013-03-08 17:00:00,
2013-03-08 12:05:00,34.8,23.9,29.90,North,350,7.0,27.0,64,0.09,,---,0.77,VWS V14.01,2013-03-08 17:05:00,
2013-03-08 12:10:00,34.8,23.9,29.90,NNE,32,12.0,27.0,64,0.10,,---,0.78,VWS V14.01,2013-03-08 17:10:00,
2013-03-08 12:15:00,34.8,23.9,29.90,North,8,10.0,27.0,64,0.10,,---,0.78,VWS V14.01,2013-03-08 17:15:00,
2013-03-08 12:20:00,34.8,23.9,29.91,North,10,11.0,27.0,64,0.11,,---,0.79,VWS V14.01,2013-03-08 17:20:00,
2013-03-08 12:25:00,34.6,23.7,29.90,NNW,346,15.0,27.0,64,0.11,,---,0.79,VWS V14.01,2013-03-08 17:25:00,
2013-03-08 12:30:00,34.4,23.9,29.90,NNE,13,7.0,27.0,65,0.12,,---,0.80,VWS V14.01,2013-03-08 17:30:00,
2013-03-08 12:35:00,34.4,23.9,29.90,North,358,17.0,22.0,65,0.07,,---,0.80,VWS V14.01,2013-03-08 17:35:00,
2013-03-08 12:40:00,34.4,23.9,29.90,NW,322,8.0,27.0,65,0.07,,---,0.80,VWS V14.01,2013-03-08 17:40:00,
2013-03-08 12:45:00,34.4,23.9,29.90,NNW,336,10.0,27.0,65,0.08,,---,0.81,VWS V14.01,2013-03-08 17:45:00,
2013-03-08 12:50:00,34.5,24.0,29.90,NNW,333,17.0,27.0,65,0.09,,---,0.82,VWS V14.01,2013-03-08 17:50:00,
2013-03-08 12:55:00,34.5,23.6,29.90,North,7,12.0,27.0,64,0.09,,---,0.82,VWS V14.01,2013-03-08 17:55:00,
2013-03-08 13:00:00,34.5,24.0,29.90,NNE,24,13.0,29.0,65,0.10,,---,0.83,VWS V14.01,2013-03-08 18:00:00,
2013-03-08 13:05:00,34.4,23.9,29.90,NNW,338,14.0,23.0,65,0.07,,---,0.83,VWS V14.01,2013-03-08 18:05:00,
2013-03-08 13:10:00,34.4,23.9,29.90,NNW,329,10.0,26.0,65,0.08,,---,0.84,VWS V14.01,2013-03-08 18:10:00,
2013-03-08 13:15:00,34.6,24.1,29.91,North,8,11.0,31.0,65,0.08,,---,0.84,VWS V14.01,2013-03-08 18:15:00,
2013-03-08 13:20:00,34.6,24.1,29.91,NNW,329,13.0,31.0,65,0.09,,---,0.85,VWS V14.01,2013-03-08 18:20:00,
2013-03-08 13:25:00,34.4,23.9,29.91,NNE,16,10.0,31.0,65,0.09,,---,0.85,VWS V14.01,2013-03-08 18:25:00,
2013-03-08 13:30:00,34.5,24.0,29.91,NNW,334,26.0,31.0,65,0.10,,---,0.86,VWS V14.01,2013-03-08 18:30:00,
2013-03-08 13:35:00,34.4,23.9,29.91,NE,53,7.0,24.0,65,0.06,,---,0.86,VWS V14.01,2013-03-08 18:35:00,
2013-03-08 13:40:00,34.4,23.9,29.91,North,349,16.0,24.0,65,0.06,,---,0.86,VWS V14.01,2013-03-08 18:40:00,
2013-03-08 13:45:00,34.4,23.9,29.91,NNE,18,5.0,24.0,65,0.07,,---,0.87,VWS V14.01,2013-03-08 18:45:00,
2013-03-08 13:50:00,34.4,23.9,29.92,NE,35,10.0,31.0,65,0.08,,---,0.88,VWS V14.01,2013-03-08 18:50:00,
2013-03-08 13:55:00,34.6,24.1,29.92,NNE,32,15.0,31.0,65,0.08,,---,0.88,VWS V14.01,2013-03-08 18:55:00,
2013-03-08 14:00:00,34.6,24.1,29.92,North,1,18.0,31.0,65,0.09,,---,0.89,VWS V14.01,2013-03-08 19:00:00,
2013-03-08 14:05:00,34.7,23.8,29.92,NNE,22,9.0,25.0,64,0.07,,---,0.90,VWS V14.01,2013-03-08 19:05:00,
2013-03-08 14:10:00,34.6,24.1,29.92,NNW,346,7.0,25.0,65,0.07,,---,0.90,VWS V14.01,2013-03-08 19:10:00,
2013-03-08 14:15:00,34.4,23.9,29.93,NNW,344,17.0,25.0,65,0.08,,---,0.91,VWS V14.01,2013-03-08 19:15:00,
2013-03-08 14:20:00,34.4,23.9,29.93,NW,319,19.0,27.0,65,0.08,,---,0.91,VWS V14.01,2013-03-08 19:20:00,
2013-03-08 14:25:00,34.4,23.9,29.93,NNE,29,15.0,27.0,65,0.09,,---,0.92,VWS V14.01,2013-03-08 19:25:00,
2013-03-08 14:30:00,34.4,23.9,29.93,NNE,19,11.0,27.0,65,0.09,,---,0.92,VWS V14.01,2013-03-08 19:30:00,
2013-03-08 14:35:00,34.4,23.9,29.92,NNW,336,21.0,24.0,65,0.07,,---,0.93,VWS V14.01,2013-03-08 19:35:00,
2013-03-08 14:40:00,34.6,23.7,29.92,NNE,13,19.0,25.0,64,0.08,,---,0.94,VWS V14.01,2013-03-08 19:40:00,
2013-03-08 14:45:00,34.7,23.8,29.93,North,351,13.0,25.0,64,0.08,,---,0.94,VWS V14.01,2013-03-08 19:45:00,
2013-03-08 14:50:00,34.6,23.7,29.93,NNW,346,12.0,25.0,64,0.09,,---,0.95,VWS V14.01,2013-03-08 19:50:00,
2013-03-08 14:55:00,34.7,23.8,29.94,North,351,9.0,25.0,64,0.10,,---,0.96,VWS V14.01,2013-03-08 19:55:00,
2013-03-08 15:00:00,34.8,23.9,29.94,North,360,18.0,25.0,64,0.11,,---,0.97,VWS V14.01,2013-03-08 20:00:00,
2013-03-08 15:05:00,34.9,24.0,29.94,North,2,8.0,17.0,64,0.08,,---,0.97,VWS V14.01,2013-03-08 20:05:00,
2013-03-08 15:10:00,34.9,24.0,29.94,ESE,114,7.0,19.0,64,0.09,,---,0.98,VWS V14.01,2013-03-08 20:10:00,
2013-03-08 15:15:00,35.0,24.1,29.94,NNW,343,15.0,23.0,64,0.10,,---,0.99,VWS V14.01,2013-03-08 20:15:00,
2013-03-08 15:20:00,35.1,24.2,29.94,North,5,11.0,32.0,64,0.11,,---,1.00,VWS V14.01,2013-03-08 20:20:00,
2013-03-08 15:25:00,35.2,24.3,29.94,NNW,344,23.0,32.0,64,0.11,,---,1.00,VWS V14.01,2013-03-08 20:25:00,
2013-03-08 15:30:00,35.2,24.3,29.94,NNW,338,19.0,32.0,64,0.12,,---,1.01,VWS V14.01,2013-03-08 20:30:00,
2013-03-08 15:35:00,35.2,24.3,29.94,NNE,15,7.0,24.0,64,0.09,,---,1.01,VWS V14.01,2013-03-08 20:35:00,
2013-03-08 15:40:00,35.1,24.2,29.94,NNW,343,12.0,26.0,64,0.10,,---,1.02,VWS V14.01,2013-03-08 20:40:00,
2013-03-08 15:45:00,35.1,24.2,29.95,NNE,26,11.0,29.0,64,0.11,,---,1.03,VWS V14.01,2013-03-08 20:45:00,
2013-03-08 15:50:00,35.2,24.3,29.95,North,7,7.0,37.0,64,0.12,,---,1.04,VWS V14.01,2013-03-08 20:50:00,
2013-03-08 15:55:00,35.3,24.4,29.95,North,354,11.0,37.0,64,0.12,,---,1.04,VWS V14.01,2013-03-08 20:55:00,
2013-03-08 16:00:00,35.5,24.5,29.95,NE,36,17.0,37.0,64,0.13,,---,1.05,VWS V14.01,2013-03-08 21:00:00,
2013-03-08 16:05:00,35.6,24.6,29.95,NNE,26,13.0,30.0,64,0.08,,---,1.05,VWS V14.01,2013-03-08 21:05:00,
2013-03-08 16:10:00,35.6,24.6,29.95,NE,37,21.0,30.0,64,0.09,,---,1.06,VWS V14.01,2013-03-08 21:10:00,
2013-03-08 16:15:00,35.7,24.7,29.96,NNW,348,9.0,30.0,64,0.09,,---,1.06,VWS V14.01,2013-03-08 21:15:00,
2013-03-08 16:20:00,35.8,24.8,29.96,NNE,12,13.0,30.0,64,0.10,,---,1.07,VWS V14.01,2013-03-08 21:20:00,
2013-03-08 16:25:00,35.9,24.9,29.97,North,6,21.0,30.0,64,0.10,,---,1.07,VWS V14.01,2013-03-08 21:25:00,
2013-03-08 16:30:00,35.9,24.9,29.97,NNE,27,14.0,30.0,64,0.10,,---,1.07,VWS V14.01,2013-03-08 21:30:00,
2013-03-08 16:35:00,35.9,24.9,29.97,North,5,23.0,23.0,64,0.06,,---,1.07,VWS V14.01,2013-03-08 21:35:00,
2013-03-08 16:40:00,35.8,24.8,29.97,North,351,16.0,23.0,64,0.07,,---,1.08,VWS V14.01,2013-03-08 21:40:00,
2013-03-08 16:45:00,35.7,25.1,29.98,North,1,10.0,23.0,65,0.07,,---,1.08,VWS V14.01,2013-03-08 21:45:00,
2013-03-08 16:50:00,35.6,25.0,29.98,NNE,13,16.0,23.0,65,0.08,,---,1.09,VWS V14.01,2013-03-08 21:50:00,
2013-03-08 16:55:00,35.6,25.0,29.98,North,357,22.0,23.0,65,0.09,,---,1.10,VWS V14.01,2013-03-08 21:55:00,
2013-03-08 17:00:00,35.7,24.7,29.99,North,355,15.0,23.0,64,0.09,,---,1.10,VWS V14.01,2013-03-08 22:00:00,
2013-03-08 17:05:00,35.8,24.8,29.99,NNE,14,8.0,22.0,64,0.05,,---,1.10,VWS V14.01,2013-03-08 22:05:00,
2013-03-08 17:10:00,35.7,25.1,29.99,North,11,19.0,27.0,65,0.06,,---,1.11,VWS V14.01,2013-03-08 22:10:00,
2013-03-08 17:15:00,35.7,25.1,29.99,NNW,347,7.0,27.0,65,0.07,,---,1.12,VWS V14.01,2013-03-08 22:15:00,
2013-03-08 17:20:00,35.7,25.1,30.00,NNW,345,8.0,29.0,65,0.07,,---,1.12,VWS V14.01,2013-03-08 22:20:00,
2013-03-08 17:25:00,35.8,25.2,30.00,NE,41,8.0,29.0,65,0.08,,---,1.13,VWS V14.01,2013-03-08 22:25:00,
2013-03-08 17:30:00,35.9,24.9,30.00,NNE,13,14.0,29.0,64,0.09,,---,1.14,VWS V14.01,2013-03-08 22:30:00,
2013-03-08 17:35:00,36.1,25.1,30.00,North,4,10.0,21.0,64,0.07,,---,1.14,VWS V14.01,2013-03-08 22:35:00,
2013-03-08 17:40:00,36.2,25.2,30.00,North,2,9.0,25.0,64,0.08,,---,1.15,VWS V14.01,2013-03-08 22:40:00,
2013-03-08 17:45:00,36.2,25.2,30.00,NNW,344,18.0,25.0,64,0.08,,---,1.15,VWS V14.01,2013-03-08 22:45:00,
2013-03-08 17:50:00,36.2,25.2,30.00,NNE,27,8.0,25.0,64,0.09,,---,1.16,VWS V14.01,2013-03-08 22:50:00,
2013-03-08 17:55:00,36.4,25.4,30.01,NNW,331,9.0,29.0,64,0.09,,---,1.16,VWS V14.01,2013-03-08 22:55:00,
2013-03-08 18:00:00,36.6,26.0,30.00,North,3,16.0,29.0,65,0.09,,---,1.16,VWS V14.01,2013-03-08 23:00:00,
2013-03-08 18:05:00,36.7,26.1,30.01,North,5,10.0,25.0,65,0.07,,---,1.17,VWS V14.01,2013-03-08 23:05:00,
2013-03-08 18:10:00,36.8,26.1,30.02,NE,35,12.0,25.0,65,0.07,,---,1.17,VWS V14.01,2013-03-08 23:10:00,
2013-03-08 18:15:00,36.9,26.2,30.02,NNW,344,20.0,26.0,65,0.08,,---,1.18,VWS V14.01,2013-03-08 23:15:00,
2013-03-08 18:20:00,36.9,26.6,30.02,NNW,348,8.0,30.0,66,0.08,,---,1.18,VWS V14.01,2013-03-08 23:20:00,
2013-03-08 18:25:00,36.9,26.6,30.02,NE,40,14.0,30.0,66,0.08,,---,1.18,VWS V14.01,2013-03-08 23:25:00,
2013-03-08 18:30:00,37.0,27.1,30.03,NNE,32,24.0,30.0,67,0.09,,---,1.19,VWS V14.01,2013-03-08 23:30:00,
2013-03-08 18:35:00,37.0,27.1,30.02,North,357,7.0,27.0,67,0.06,,---,1.20,VWS V14.01,2013-03-08 23:35:00,
2013-03-08 18:40:00,37.0,27.1,30.03,North,5,10.0,27.0,67,0.06,,---,1.20,VWS V14.01,2013-03-08 23:40:00,
2013-03-08 18:45:00,37.0,27.4,30.02,North,5,5.0,27.0,68,0.07,,---,1.21,VWS V14.01,2013-03-08 23:45:00,
2013-03-08 18:50:00,37.2,27.6,30.02,North,355,16.0,27.0,68,0.07,,---,1.21,VWS V14.01,2013-03-08 23:50:00,
2013-03-08 18:55:00,37.5,27.9,30.01,North,1,15.0,27.0,68,0.07,,---,1.21,VWS V14.01,2013-03-08 23:55:00,
2013-03-08 19:00:00,37.7,28.8,30.01,NNE,26,15.0,27.0,70,0.07,,---,1.21,VWS V14.01,2013-03-09 00:00:00,
2013-03-08 19:05:00,37.7,29.8,30.02,North,10,11.0,15.0,73,0.05,,---,1.21,VWS V14.01,2013-03-09 00:05:00,
2013-03-08 19:10:00,37.6,30.1,30.02,North,351,5.0,16.0,74,0.05,,---,1.21,VWS V14.01,2013-03-09 00:10:00,
2013-03-08 19:15:00,37.6,31.1,30.02,NNE,14,10.0,16.0,77,0.05,,---,1.21,VWS V14.01,2013-03-09 00:15:00,
2013-03-08 19:20:00,37.8,32.2,30.02,NNE,20,5.0,16.0,80,0.05,,---,1.21,VWS V14.01,2013-03-09 00:20:00,
2013-03-08 19:25:00,38.1,33.1,30.03,NE,53,9.0,20.0,82,0.05,,---,1.21,VWS V14.01,2013-03-09 00:25:00,
2013-03-08 19:30:00,38.2,33.5,30.02,NW,325,4.0,20.0,83,0.05,,---,1.21,VWS V14.01,2013-03-09 00:30:00,
2013-03-08 19:35:00,38.7,34.3,30.02,NNW,344,8.0,18.0,84,0.02,,---,1.21,VWS V14.01,2013-03-09 00:35:00,
2013-03-08 19:40:00,38.8,34.7,30.03,North,359,8.0,18.0,85,0.02,,---,1.21,VWS V14.01,2013-03-09 00:40:00,
2013-03-08 19:45:00,38.9,34.8,30.03,NNW,332,10.0,18.0,85,0.02,,---,1.21,VWS V14.01,2013-03-09 00:45:00,
2013-03-08 19:50:00,39.1,35.0,30.03,NNE,29,8.0,18.0,85,0.02,,---,1.21,VWS V14.01,2013-03-09 00:50:00,
2013-03-08 19:55:00,39.3,35.5,30.03,North,354,14.0,18.0,86,0.02,,---,1.21,VWS V14.01,2013-03-09 00:55:00,
2013-03-08 20:00:00,39.3,35.5,30.03,North,11,2.0,18.0,86,0.02,,---,1.21,VWS V14.01,2013-03-09 01:00:00,
2013-03-08 20:05:00,39.2,35.4,30.03,NNE,13,11.0,20.0,86,0.00,,---,1.21,VWS V14.01,2013-03-09 01:05:00,
2013-03-08 20:10:00,39.3,35.8,30.03,NNW,347,9.0,20.0,87,0.00,,---,1.21,VWS V14.01,2013-03-09 01:10:00,
2013-03-08 20:15:00,39.3,35.8,30.04,NNW,340,18.0,20.0,87,0.00,,---,1.21,VWS V14.01,2013-03-09 01:15:00,
2013-03-08 20:20:00,39.4,35.6,30.03,NNW,336,6.0,22.0,86,0.00,,---,1.21,VWS V14.01,2013-03-09 01:20:00,
2013-03-08 20:25:00,39.5,35.7,30.03,North,5,12.0,22.0,86,0.00,,---,1.21,VWS V14.01,2013-03-09 01:25:00,
2013-03-08 20:30:00,39.7,35.9,30.03,NW,319,6.0,22.0,86,0.00,,---,1.21,VWS V14.01,2013-03-09 01:30:00,
2013-03-08 20:35:00,39.6,35.8,30.03,NNW,332,7.0,19.0,86,0.00,,---,1.21,VWS V14.01,2013-03-09 01:35:00,
2013-03-08 20:40:00,39.5,35.7,30.04,NNW,342,6.0,19.0,86,0.00,,---,1.21,VWS V14.01,2013-03-09 01:40:00,
2013-03-08 20:45:00,39.4,35.6,30.04,NW,325,6.0,19.0,86,0.00,,---,1.21,VWS V14.01,2013-03-09 01:45:00,
2013-03-08 20:50:00,39.4,35.3,30.04,NNW,344,3.0,19.0,85,0.00,,---,1.21,VWS V14.01,2013-03-09 01:50:00,
2013-03-08 20:55:00,39.3,35.2,30.04,NNW,330,2.0,19.0,85,0.00,,---,1.21,VWS V14.01,2013-03-09 01:55:00,
2013-03-08 21:00:00,39.2,35.1,30.04,NW,305,7.0,19.0,85,0.00,,---,1.21,VWS V14.01,2013-03-09 02:00:00,
2013-03-08 21:05:00,39.3,35.2,30.04,NNW,339,11.0,16.0,85,0.00,,---,1.21,VWS V14.01,2013-03-09 02:05:00,
2013-03-08 21:10:00,39.3,35.2,30.04,NW,322,14.0,16.0,85,0.00,,---,1.21,VWS V14.01,2013-03-09 02:10:00,
2013-03-08 21:15:00,39.4,35.0,30.04,NNE,20,2.0,19.0,84,0.00,,---,1.21,VWS V14.01,2013-03-09 02:15:00,
2013-03-08 21:20:00,39.6,35.2,30.05,NNW,347,8.0,19.0,84,0.00,,---,1.21,VWS V14.01,2013-03-09 02:20:00,
2013-03-08 21:25:00,39.8,35.1,30.04,NNE,20,10.0,20.0,83,0.00,,---,1.21,VWS V14.01,2013-03-09 02:25:00,
2013-03-08 21:30:00,39.8,35.1,30.05,NNW,333,10.0,23.0,83,0.00,,---,1.21,VWS V14.01,2013-03-09 02:30:00,
2013-03-08 21:35:00,39.8,35.1,30.05,North,356,11.0,21.0,83,0.00,,---,1.21,VWS V14.01,2013-03-09 02:35:00,
2013-03-08 21:40:00,39.9,35.2,30.05,NNW,342,9.0,21.0,83,0.00,,---,1.21,VWS V14.01,2013-03-09 02:40:00,
2013-03-08 21:45:00,39.8,35.1,30.05,North,357,12.0,24.0,83,0.00,,---,1.21,VWS V14.01,2013-03-09 02:45:00,
2013-03-08 21:50:00,40.1,35.1,30.05,North,354,7.0,24.0,82,0.00,,---,1.21,VWS V14.01,2013-03-09 02:50:00,
2013-03-08 21:55:00,40.0,35.0,30.06,North,5,10.0,24.0,82,0.00,,---,1.21,VWS V14.01,2013-03-09 02:55:00,
2013-03-08 22:00:00,39.8,34.8,30.06,NNW,347,6.0,24.0,82,0.00,,---,1.21,VWS V14.01,2013-03-09 03:00:00,
2013-03-08 22:05:00,39.9,34.9,30.06,North,360,11.0,19.0,82,0.00,,---,1.21,VWS V14.01,2013-03-09 03:05:00,
2013-03-08 22:10:00,39.8,34.8,30.06,North,359,6.0,22.0,82,0.00,,---,1.21,VWS V14.01,2013-03-09 03:10:00,
2013-03-08 22:15:00,39.7,35.0,30.06,NNE,16,17.0,22.0,83,0.00,,---,1.21,VWS V14.01,2013-03-09 03:15:00,
2013-03-08 22:20:00,40.0,34.7,30.06,North,10,8.0,25.0,81,0.00,,---,1.21,VWS V14.01,2013-03-09 03:20:00,
2013-03-08 22:25:00,40.0,34.7,30.06,NNW,328,7.0,25.0,81,0.01,,---,1.22,VWS V14.01,2013-03-09 03:25:00,
2013-03-08 22:30:00,40.0,34.7,30.06,NW,316,6.0,25.0,81,0.01,,---,1.22,VWS V14.01,2013-03-09 03:30:00,
2013-03-08 22:35:00,40.1,34.8,30.06,North,354,8.0,18.0,81,0.01,,---,1.22,VWS V14.01,2013-03-09 03:35:00,
2013-03-08 22:40:00,40.0,34.7,30.06,NNE,13,16.0,19.0,81,0.01,,---,1.22,VWS V14.01,2013-03-09 03:40:00,
2013-03-08 22:45:00,40.3,34.6,30.06,NNE,24,14.0,23.0,80,0.01,,---,1.22,VWS V14.01,2013-03-09 03:45:00,
2013-03-08 22:50:00,40.3,34.6,30.06,NNW,338,15.0,23.0,80,0.01,,---,1.22,VWS V14.01,2013-03-09 03:50:00,
2013-03-08 22:55:00,40.5,34.5,30.06,North,5,14.0,25.0,79,0.01,,---,1.22,VWS V14.01,2013-03-09 03:55:00,
2013-03-08 23:00:00,40.5,34.5,30.06,North,4,10.0,26.0,79,0.01,,---,1.22,VWS V14.01,2013-03-09 04:00:00,
2013-03-08 23:05:00,40.7,34.4,30.06,North,351,5.0,24.0,78,0.01,,---,1.22,VWS V14.01,2013-03-09 04:05:00,
2013-03-08 23:10:00,40.6,34.3,30.06,NE,43,17.0,24.0,78,0.01,,---,1.22,VWS V14.01,2013-03-09 04:10:00,
2013-03-08 23:15:00,40.5,34.5,30.06,North,351,16.0,24.0,79,0.01,,---,1.22,VWS V14.01,2013-03-09 04:15:00,
2013-03-08 23:20:00,40.5,34.2,30.06,NNW,340,14.0,24.0,78,0.01,,---,1.22,VWS V14.01,2013-03-09 04:20:00,
2013-03-08 23:25:00,40.3,34.3,30.06,NNW,342,11.0,30.0,79,0.01,,---,1.22,VWS V14.01,2013-03-09 04:25:00,
2013-03-08 23:30:00,40.2,33.6,30.06,NNW,340,9.0,30.0,77,0.01,,---,1.22,VWS V14.01,2013-03-09 04:30:00,
2013-03-08 23:35:00,40.5,33.5,30.06,NNE,12,8.0,36.0,76,0.00,,---,1.22,VWS V14.01,2013-03-09 04:35:00,
2013-03-08 23:40:00,40.3,33.3,30.06,North,355,23.0,36.0,76,0.00,,---,1.22,VWS V14.01,2013-03-09 04:40:00,
2013-03-08 23:45:00,40.1,33.5,30.07,NNW,334,9.0,36.0,77,0.00,,---,1.22,VWS V14.01,2013-03-09 04:45:00,
2013-03-08 23:50:00,40.1,33.5,30.07,NNW,347,12.0,36.0,77,0.00,,---,1.22,VWS V14.01,2013-03-09 04:50:00,
2013-03-08 23:55:00,40.0,33.7,30.07,NW,320,7.0,36.0,78,0.00,,---,1.22,VWS V14.01,2013-03-09 04:55:00,